createdAt,value
2023-10-10T00:00:56.609Z,15.00
2023-10-10T00:03:33.167Z,14.90
2023-10-10T00:06:10.216Z,14.80
2023-10-10T00:08:45.804Z,14.70
2023-10-10T00:11:20.267Z,14.70
2023-10-10T00:14:06.248Z,14.70
2023-10-10T00:16:42.050Z,14.70
2023-10-10T00:19:29.873Z,14.70
2023-10-10T00:22:05.861Z,14.60
2023-10-10T00:24:39.850Z,14.60
2023-10-10T00:27:14.908Z,14.50
2023-10-10T00:29:47.188Z,14.50
2023-10-10T00:32:29.902Z,14.40
2023-10-10T00:35:07.652Z,14.40
2023-10-10T00:37:41.778Z,14.40
2023-10-10T00:40:30.677Z,14.40
2023-10-10T00:43:05.705Z,14.30
2023-10-10T00:45:53.530Z,14.30
2023-10-10T00:48:30.993Z,14.30
2023-10-10T00:51:11.689Z,14.30
2023-10-10T00:54:13.135Z,14.20
2023-10-10T00:57:00.928Z,14.10
2023-10-10T00:59:45.294Z,14.10
2023-10-10T01:02:21.107Z,14.10
2023-10-10T01:04:54.405Z,14.10
2023-10-10T01:07:30.100Z,14.10
2023-10-10T01:10:13.140Z,14.00
2023-10-10T01:12:49.423Z,13.90
2023-10-10T01:15:35.820Z,13.90
2023-10-10T01:18:14.832Z,13.90
2023-10-10T01:20:47.874Z,13.80
2023-10-10T01:23:28.110Z,13.80
2023-10-10T01:26:07.710Z,13.80
2023-10-10T01:28:42.903Z,13.80
2023-10-10T01:31:19.410Z,13.70
2023-10-10T01:33:51.776Z,13.70
2023-10-10T01:36:31.016Z,13.60
2023-10-10T01:39:21.014Z,13.60
2023-10-10T01:42:00.338Z,13.50
2023-10-10T01:44:33.285Z,13.50
2023-10-10T01:47:21.318Z,13.40
2023-10-10T01:50:14.010Z,13.40
2023-10-10T01:52:47.529Z,13.40
2023-10-10T01:55:25.479Z,13.30
2023-10-10T01:57:59.026Z,13.30
2023-10-10T02:00:36.216Z,13.20
2023-10-10T02:03:10.954Z,13.20
2023-10-10T02:05:46.762Z,13.10
2023-10-10T02:08:24.909Z,13.10
2023-10-10T02:11:03.268Z,13.10
2023-10-10T02:13:40.757Z,13.00
2023-10-10T02:16:19.940Z,13.00
2023-10-10T02:19:00.521Z,13.00
2023-10-10T02:21:45.712Z,13.00
2023-10-10T02:24:28.600Z,13.00
2023-10-10T02:27:14.928Z,13.00
2023-10-10T02:29:54.735Z,13.00
2023-10-10T02:32:30.794Z,13.00
2023-10-10T02:35:17.635Z,12.90
2023-10-10T02:38:08.412Z,12.90
2023-10-10T02:40:44.457Z,12.90
2023-10-10T02:43:47.199Z,12.90
2023-10-10T02:46:40.185Z,12.90
2023-10-10T02:49:31.043Z,12.80
2023-10-10T02:52:09.968Z,12.80
2023-10-10T02:54:55.263Z,12.80
2023-10-10T02:57:28.280Z,12.70
2023-10-10T03:00:22.141Z,12.70
2023-10-10T03:03:06.213Z,12.60
2023-10-10T03:05:51.638Z,12.60
2023-10-10T03:08:31.751Z,12.50
2023-10-10T03:11:22.111Z,12.50
2023-10-10T03:14:26.874Z,12.50
2023-10-10T03:17:05.079Z,12.40
2023-10-10T03:19:42.681Z,12.40
2023-10-10T03:22:29.135Z,12.40
2023-10-10T03:25:29.564Z,12.50
2023-10-10T03:28:21.284Z,12.40
2023-10-10T03:31:16.838Z,12.40
2023-10-10T03:34:15.819Z,12.40
2023-10-10T03:37:21.349Z,12.40
2023-10-10T03:40:20.035Z,12.40
2023-10-10T03:43:17.049Z,12.30
2023-10-10T03:46:27.518Z,12.30
2023-10-10T03:49:38.514Z,12.30
2023-10-10T03:52:56.759Z,12.30
2023-10-10T03:56:07.130Z,12.30
2023-10-10T03:59:19.096Z,12.20
2023-10-10T04:02:29.742Z,12.20
2023-10-10T04:05:39.996Z,12.20
2023-10-10T04:08:50.803Z,12.20
2023-10-10T04:12:01.032Z,12.20
2023-10-10T04:15:11.384Z,12.20
2023-10-10T04:18:22.293Z,12.10
2023-10-10T04:21:32.626Z,12.10
2023-10-10T04:24:43.042Z,12.10
2023-10-10T04:27:54.638Z,12.10
2023-10-10T04:31:08.895Z,12.10
2023-10-10T04:34:19.655Z,12.10
2023-10-10T04:37:29.887Z,12.00
2023-10-10T04:40:40.244Z,12.00
2023-10-10T04:43:53.031Z,12.00
2023-10-10T04:47:05.344Z,12.00
2023-10-10T04:50:15.927Z,12.00
2023-10-10T04:53:26.340Z,12.00
2023-10-10T04:56:36.544Z,11.90
2023-10-10T04:59:46.874Z,11.90
2023-10-10T05:02:57.460Z,11.90
2023-10-10T05:06:19.770Z,11.80
2023-10-10T05:09:30.221Z,11.80
2023-10-10T05:12:40.619Z,11.80
2023-10-10T05:15:51.580Z,11.70
2023-10-10T05:19:01.785Z,11.70
2023-10-10T05:22:12.020Z,11.70
2023-10-10T05:25:08.695Z,11.60
2023-10-10T05:27:45.415Z,11.60
2023-10-10T05:30:28.581Z,11.60
2023-10-10T05:33:13.879Z,11.60
2023-10-10T05:35:50.515Z,11.60
2023-10-10T05:38:28.797Z,11.50
2023-10-10T05:41:03.757Z,11.50
2023-10-10T05:43:39.103Z,11.50
2023-10-10T05:46:11.816Z,11.50
2023-10-10T05:48:48.469Z,11.50
2023-10-10T05:51:20.697Z,11.50
2023-10-10T05:53:53.126Z,11.50
2023-10-10T05:56:26.052Z,11.50
2023-10-10T05:58:58.408Z,11.50
2023-10-10T06:01:37.282Z,11.60
2023-10-10T06:04:13.027Z,11.60
2023-10-10T06:06:47.424Z,11.60
2023-10-10T06:09:20.515Z,11.70
2023-10-10T06:12:05.158Z,11.70
2023-10-10T06:14:37.859Z,11.80
2023-10-10T06:17:10.497Z,11.80
2023-10-10T06:19:46.983Z,11.90
2023-10-10T06:22:20.320Z,12.00
2023-10-10T06:24:59.183Z,12.10
2023-10-10T06:27:34.262Z,12.20
2023-10-10T06:30:18.966Z,12.40
2023-10-10T06:32:59.971Z,12.60
2023-10-10T06:35:40.968Z,12.80
2023-10-10T06:38:14.239Z,13.10
2023-10-10T06:40:57.236Z,13.30
2023-10-10T06:43:34.407Z,13.70
2023-10-10T06:46:07.272Z,13.90
2023-10-10T06:48:49.048Z,14.20
2023-10-10T06:51:23.555Z,14.60
2023-10-10T06:53:56.220Z,14.80
2023-10-10T06:56:55.255Z,15.10
2023-10-10T06:59:36.989Z,15.30
2023-10-10T07:02:21.463Z,15.70
2023-10-10T07:04:54.026Z,15.90
2023-10-10T07:07:27.807Z,16.10
2023-10-10T07:10:00.357Z,16.30
2023-10-10T07:12:41.709Z,16.70
2023-10-10T07:15:15.813Z,17.10
2023-10-10T07:17:50.879Z,17.50
2023-10-10T07:21:05.551Z,18.10
2023-10-10T07:24:17.115Z,18.70
2023-10-10T07:27:07.128Z,19.20
2023-10-10T07:29:50.937Z,19.50
2023-10-10T07:32:31.756Z,19.60
2023-10-10T07:35:04.562Z,19.70
2023-10-10T07:37:38.696Z,19.90
2023-10-10T07:40:18.528Z,20.10
2023-10-10T07:42:52.821Z,20.30
2023-10-10T07:45:44.976Z,20.50
2023-10-10T07:48:30.461Z,20.60
2023-10-10T07:51:11.779Z,20.80
2023-10-10T07:53:59.685Z,21.10
2023-10-10T07:56:47.012Z,21.20
2023-10-10T07:59:19.652Z,21.30
2023-10-10T08:01:55.906Z,21.30
2023-10-10T08:04:31.658Z,21.30
2023-10-10T08:07:04.988Z,21.20
2023-10-10T08:09:38.646Z,21.20
2023-10-10T08:12:11.595Z,21.10
2023-10-10T08:14:45.640Z,21.10
2023-10-10T08:17:21.183Z,21.20
2023-10-10T08:20:18.163Z,21.40
2023-10-10T08:23:10.808Z,21.60
2023-10-10T08:25:43.762Z,21.80
2023-10-10T08:28:17.819Z,21.90
2023-10-10T08:30:51.878Z,22.00
2023-10-10T08:33:27.833Z,21.90
2023-10-10T08:36:04.869Z,21.80
2023-10-10T08:38:43.487Z,21.60
2023-10-10T08:41:23.122Z,21.40
2023-10-10T08:44:07.568Z,21.30
2023-10-10T08:46:47.645Z,21.20
2023-10-10T08:49:20.940Z,21.10
2023-10-10T08:51:55.928Z,21.00
2023-10-10T08:54:34.031Z,20.80
2023-10-10T08:57:11.647Z,20.80
2023-10-10T08:59:46.971Z,20.80
2023-10-10T09:02:24.644Z,20.80
2023-10-10T09:05:07.514Z,20.80
2023-10-10T09:07:44.521Z,20.70
2023-10-10T09:10:19.408Z,20.80
2023-10-10T09:12:54.858Z,20.90
2023-10-10T09:15:31.890Z,21.00
2023-10-10T09:18:18.858Z,21.10
2023-10-10T09:21:19.926Z,21.30
2023-10-10T09:24:09.507Z,21.30
2023-10-10T09:26:59.483Z,21.20
2023-10-10T09:29:55.881Z,21.30
2023-10-10T09:32:36.113Z,21.50
2023-10-10T09:35:09.636Z,21.60
2023-10-10T09:37:43.825Z,21.70
2023-10-10T09:40:17.455Z,21.80
2023-10-10T09:43:14.998Z,21.90
2023-10-10T09:46:12.507Z,22.00
2023-10-10T09:48:58.631Z,22.10
2023-10-10T09:51:59.355Z,22.10
2023-10-10T09:54:38.000Z,22.20
2023-10-10T09:57:17.396Z,22.30
2023-10-10T10:00:01.840Z,22.30
2023-10-10T10:02:52.007Z,22.30
2023-10-10T10:05:32.442Z,22.30
2023-10-10T10:08:23.322Z,22.30
2023-10-10T10:11:39.026Z,22.30
2023-10-10T10:14:47.581Z,22.40
2023-10-10T10:18:12.757Z,22.50
2023-10-10T10:21:15.587Z,22.50
2023-10-10T10:24:10.940Z,22.60
2023-10-10T10:27:26.753Z,22.70
2023-10-10T10:30:21.667Z,22.80
2023-10-10T10:33:15.369Z,22.90
2023-10-10T10:36:07.934Z,22.90
2023-10-10T10:39:09.051Z,22.90
2023-10-10T10:42:02.581Z,23.00
2023-10-10T10:44:56.970Z,23.20
2023-10-10T10:48:02.648Z,23.20
2023-10-10T10:50:42.392Z,23.30
2023-10-10T10:53:33.002Z,23.40
2023-10-10T10:56:29.030Z,23.40
2023-10-10T10:59:16.831Z,23.60
2023-10-10T11:01:56.768Z,23.70
2023-10-10T11:04:32.471Z,23.80
2023-10-10T11:07:30.863Z,23.80
2023-10-10T11:10:36.912Z,23.90
2023-10-10T11:13:11.664Z,24.00
2023-10-10T11:15:47.714Z,24.00
2023-10-10T11:18:36.338Z,24.20
2023-10-10T11:21:12.799Z,24.40
2023-10-10T11:23:47.567Z,24.50
2023-10-10T11:26:20.755Z,24.50
2023-10-10T11:28:58.322Z,24.60
2023-10-10T11:31:36.900Z,24.70
2023-10-10T11:34:43.564Z,24.80
2023-10-10T11:37:43.802Z,24.90
2023-10-10T11:40:24.802Z,25.00
2023-10-10T11:43:06.650Z,25.00
2023-10-10T11:45:53.540Z,25.00
2023-10-10T11:48:27.779Z,25.10
2023-10-10T11:51:13.248Z,25.20
2023-10-10T11:53:47.952Z,25.20
2023-10-10T11:56:23.608Z,25.20
2023-10-10T11:58:57.840Z,25.30
2023-10-10T12:01:48.956Z,25.30
2023-10-10T12:04:40.649Z,25.40
2023-10-10T12:07:16.463Z,25.40
2023-10-10T12:09:53.670Z,25.40
2023-10-10T12:12:46.475Z,25.40
2023-10-10T12:15:21.430Z,25.40
2023-10-10T12:17:56.841Z,25.40
2023-10-10T12:20:31.914Z,25.30
2023-10-10T12:23:05.105Z,25.30
2023-10-10T12:25:42.508Z,25.30
2023-10-10T12:28:19.247Z,25.30
2023-10-10T12:30:53.627Z,25.40
2023-10-10T12:33:30.054Z,25.40
2023-10-10T12:36:10.674Z,25.40
2023-10-10T12:38:44.492Z,25.40
2023-10-10T12:41:24.170Z,25.50
2023-10-10T12:43:57.923Z,25.50
2023-10-10T12:46:30.382Z,25.60
2023-10-10T12:49:03.182Z,25.60
2023-10-10T12:51:37.157Z,25.70
2023-10-10T12:54:14.433Z,25.70
2023-10-10T12:57:01.403Z,25.60
2023-10-10T12:59:40.297Z,25.60
2023-10-10T13:02:19.227Z,25.70
2023-10-10T13:04:59.708Z,25.70
2023-10-10T13:07:36.909Z,25.80
2023-10-10T13:10:14.621Z,25.90
2023-10-10T13:12:53.126Z,26.00
2023-10-10T13:15:48.134Z,26.00
2023-10-10T13:18:24.427Z,25.90
2023-10-10T13:20:58.053Z,25.90
2023-10-10T13:23:33.389Z,26.00
2023-10-10T13:26:07.812Z,26.00
2023-10-10T13:28:45.989Z,26.00
2023-10-10T13:31:20.279Z,26.10
2023-10-10T13:34:02.446Z,26.10
2023-10-10T13:36:35.685Z,26.10
2023-10-10T13:39:10.836Z,26.10
2023-10-10T13:41:48.099Z,26.00
2023-10-10T13:44:20.953Z,25.90
2023-10-10T13:46:54.176Z,25.90
2023-10-10T13:49:28.121Z,25.90
2023-10-10T13:52:05.959Z,25.80
2023-10-10T13:54:43.929Z,25.80
2023-10-10T13:57:16.452Z,25.80
2023-10-10T13:59:50.937Z,25.70
2023-10-10T14:02:26.934Z,25.60
2023-10-10T14:05:05.087Z,25.50
2023-10-10T14:07:40.374Z,25.40
2023-10-10T14:10:22.264Z,25.40
2023-10-10T14:13:03.434Z,25.30
2023-10-10T14:15:59.397Z,25.20
2023-10-10T14:18:44.198Z,25.10
2023-10-10T14:21:28.651Z,25.00
2023-10-10T14:24:14.519Z,25.00
2023-10-10T14:26:50.034Z,24.90
2023-10-10T14:29:23.882Z,24.90
2023-10-10T14:32:00.265Z,24.90
2023-10-10T14:34:40.164Z,24.90
2023-10-10T15:40:41.053Z,23.80
2023-10-10T15:43:30.402Z,23.80
2023-10-10T15:46:08.329Z,23.70
2023-10-10T15:48:44.204Z,23.60
2023-10-10T15:51:24.159Z,23.50
2023-10-10T15:53:58.178Z,23.30
2023-10-10T15:56:38.512Z,23.20
2023-10-10T15:59:11.655Z,23.00
2023-10-10T16:01:49.218Z,22.80
2023-10-10T16:04:25.122Z,22.60
2023-10-10T16:07:00.970Z,22.40
2023-10-10T16:09:34.003Z,22.20
2023-10-10T16:12:23.747Z,22.00
2023-10-10T16:14:56.881Z,21.80
2023-10-10T16:17:30.761Z,21.60
2023-10-10T16:20:09.880Z,21.40
2023-10-10T16:22:46.745Z,21.20
2023-10-10T16:25:24.351Z,21.00
2023-10-10T16:27:59.286Z,20.90
2023-10-10T16:30:33.815Z,20.70
2023-10-10T16:33:10.289Z,20.50
2023-10-10T16:35:47.729Z,20.40
2023-10-10T16:38:23.585Z,20.20
2023-10-10T16:40:56.816Z,20.10
2023-10-10T16:43:43.103Z,20.00
2023-10-10T16:46:33.951Z,19.80
2023-10-10T16:49:10.429Z,19.70
2023-10-10T16:51:50.648Z,19.50
2023-10-10T16:54:33.793Z,19.50
2023-10-10T16:57:06.918Z,19.40
2023-10-10T16:59:46.629Z,19.20
2023-10-10T17:02:19.535Z,19.20
2023-10-10T17:04:52.382Z,19.00
2023-10-10T17:07:28.668Z,18.90
2023-10-10T17:10:06.428Z,18.80
2023-10-10T17:12:43.904Z,18.70
2023-10-10T17:15:22.498Z,18.70
2023-10-10T17:17:58.498Z,18.60
2023-10-10T17:20:31.524Z,18.50
2023-10-10T17:23:10.920Z,18.40
2023-10-10T17:25:45.679Z,18.30
2023-10-10T17:28:18.586Z,18.20
2023-10-10T17:30:53.898Z,18.10
2023-10-10T17:33:29.977Z,18.00
2023-10-10T17:36:07.830Z,17.80
2023-10-10T17:38:40.923Z,17.80
2023-10-10T17:41:16.744Z,17.70
2023-10-10T17:43:53.650Z,17.60
2023-10-10T17:46:31.729Z,17.60
2023-10-10T17:49:06.583Z,17.50
2023-10-10T17:51:42.556Z,17.50
2023-10-10T17:54:17.565Z,17.50
2023-10-10T17:56:50.810Z,17.40
2023-10-10T17:59:25.052Z,17.40
2023-10-10T18:01:58.414Z,17.40
2023-10-10T18:04:33.048Z,17.30
2023-10-10T18:07:11.676Z,17.20
2023-10-10T18:09:45.460Z,17.30
2023-10-10T18:12:26.408Z,17.20
2023-10-10T18:15:01.956Z,17.20
2023-10-10T18:17:40.396Z,17.20
2023-10-10T18:20:17.350Z,17.10
2023-10-10T18:22:55.331Z,17.10
2023-10-10T18:25:32.142Z,17.00
2023-10-10T18:28:08.178Z,16.90
2023-10-10T18:30:42.800Z,16.90
2023-10-10T18:33:16.181Z,16.80
2023-10-10T18:35:51.099Z,16.70
2023-10-10T18:38:25.227Z,16.70
2023-10-10T18:40:58.943Z,16.60
2023-10-10T18:43:33.434Z,16.50
2023-10-10T18:46:08.068Z,16.50
2023-10-10T18:48:44.460Z,16.50
2023-10-10T18:51:19.419Z,16.40
2023-10-10T18:53:53.727Z,16.40
2023-10-10T18:56:28.247Z,16.30
2023-10-10T18:59:02.485Z,16.30
2023-10-10T19:01:39.291Z,16.20
2023-10-10T19:04:19.848Z,16.10
2023-10-10T19:06:54.852Z,16.00
2023-10-10T19:09:28.596Z,16.00
2023-10-10T19:12:02.308Z,16.00
2023-10-10T19:14:36.698Z,15.90
2023-10-10T19:17:11.259Z,15.90
2023-10-10T19:19:47.020Z,15.90
2023-10-10T19:22:22.036Z,15.90
2023-10-10T19:24:55.629Z,15.80
2023-10-10T19:27:29.651Z,15.80
2023-10-10T19:30:04.698Z,15.80
2023-10-10T19:32:41.069Z,15.80
2023-10-10T19:35:22.013Z,15.70
2023-10-10T19:37:57.238Z,15.70
2023-10-10T19:40:30.637Z,15.70
2023-10-10T19:43:04.330Z,15.60
2023-10-10T19:45:40.317Z,15.60
2023-10-10T19:48:17.626Z,15.50
2023-10-10T19:50:51.321Z,15.40
2023-10-10T19:53:34.010Z,15.40
2023-10-10T19:56:15.227Z,15.40
2023-10-10T19:58:50.241Z,15.30
2023-10-10T20:01:26.828Z,15.20
2023-10-10T20:04:00.324Z,15.20
2023-10-10T20:06:33.794Z,15.20
2023-10-10T20:09:11.668Z,15.20
2023-10-10T20:11:57.093Z,15.10
2023-10-10T20:14:36.506Z,15.10
2023-10-10T20:17:13.736Z,15.00
2023-10-10T20:19:47.981Z,14.90
2023-10-10T20:22:23.050Z,14.90
2023-10-10T20:24:56.626Z,14.80
2023-10-10T20:27:31.834Z,14.80
2023-10-10T20:30:05.259Z,14.80
2023-10-10T20:32:40.124Z,14.80
2023-10-10T20:35:25.943Z,14.80
2023-10-10T20:38:02.060Z,14.80
2023-10-10T20:40:38.452Z,14.80
2023-10-10T20:43:15.229Z,14.70
2023-10-10T20:45:48.628Z,14.70
2023-10-10T20:48:24.534Z,14.70
2023-10-10T20:50:57.823Z,14.70
2023-10-10T20:53:31.112Z,14.70
2023-10-10T20:56:04.312Z,14.70
2023-10-10T20:58:39.710Z,14.60
2023-10-10T21:01:13.940Z,14.60
2023-10-10T21:03:49.710Z,14.60
2023-10-10T21:06:22.726Z,14.50
2023-10-10T21:08:55.514Z,14.50
2023-10-10T21:11:28.461Z,14.50
2023-10-10T21:14:01.617Z,14.50
2023-10-10T21:16:36.047Z,14.40
2023-10-10T21:19:10.746Z,14.40
2023-10-10T21:21:45.859Z,14.40
2023-10-10T21:24:18.915Z,14.40
2023-10-10T21:26:51.491Z,14.30
2023-10-10T21:29:24.411Z,14.30
2023-10-10T21:31:59.222Z,14.20
2023-10-10T21:34:36.987Z,14.20
2023-10-10T21:37:10.588Z,14.10
2023-10-10T21:39:58.656Z,14.00
2023-10-10T21:42:49.715Z,14.00
2023-10-10T21:45:25.069Z,13.90
2023-10-10T21:47:58.533Z,13.90
2023-10-10T21:50:31.183Z,13.90
2023-10-10T21:53:03.907Z,13.90
2023-10-10T21:55:38.879Z,13.80
2023-10-10T21:58:15.208Z,13.80
2023-10-10T22:00:47.580Z,13.70
2023-10-10T22:03:23.598Z,13.70
2023-10-10T22:05:58.156Z,13.70
2023-10-10T22:08:31.532Z,13.60
2023-10-10T22:11:09.381Z,13.60
2023-10-10T22:13:44.560Z,13.50
2023-10-10T22:16:22.240Z,13.50
2023-10-10T22:18:54.913Z,13.50
2023-10-10T22:21:31.901Z,13.50
2023-10-10T22:24:04.436Z,13.50
2023-10-10T22:26:37.768Z,13.40
2023-10-10T22:29:12.425Z,13.40
2023-10-10T22:31:47.352Z,13.40
2023-10-10T22:34:20.103Z,13.40
2023-10-10T22:37:05.993Z,13.40
2023-10-10T22:39:40.266Z,13.40
2023-10-10T22:42:14.768Z,13.40
2023-10-10T22:44:47.044Z,13.40
2023-10-10T22:47:19.666Z,13.40
2023-10-10T22:49:55.361Z,13.40
2023-10-10T22:52:29.669Z,13.40
2023-10-10T22:55:03.169Z,13.30
2023-10-10T22:57:35.978Z,13.30
2023-10-10T23:00:14.389Z,13.30
2023-10-10T23:02:46.798Z,13.30
2023-10-10T23:05:21.237Z,13.20
2023-10-10T23:07:57.714Z,13.20
2023-10-10T23:10:30.977Z,13.20
2023-10-10T23:13:05.227Z,13.20
2023-10-10T23:15:39.320Z,13.20
2023-10-10T23:18:12.503Z,13.10
2023-10-10T23:20:53.041Z,13.10
2023-10-10T23:23:27.839Z,13.10
2023-10-10T23:26:00.103Z,13.10
2023-10-10T23:28:34.307Z,13.10
2023-10-10T23:31:08.202Z,13.10
2023-10-10T23:33:42.608Z,13.10
2023-10-10T23:36:18.664Z,13.00
2023-10-10T23:38:50.941Z,13.00
2023-10-10T23:41:23.615Z,13.00
2023-10-10T23:43:55.907Z,13.00
2023-10-10T23:46:29.093Z,12.90
2023-10-10T23:49:01.513Z,12.90
2023-10-10T23:51:37.270Z,12.90
2023-10-10T23:54:11.306Z,12.90
2023-10-10T23:56:49.905Z,12.90
2023-10-10T23:59:23.532Z,12.80
